DAH1068 DAOO-LFML
Flight info
| Callsign | DAH1068 |
|---|---|
| Flight time | N/A |
| Altitude | 33000 |
| Route | SID54 LABRO DCT CDP DCT CHELY DCT LUMAS UM976 SOSUR |
| Aircraft | B738/M-SDE2E3FGHIRWXY/LB1 |
Departure
| Time | 2026-04-26 12:04 |
|---|---|
| Airport | Oran Es-Sénia (Ahmed Ben Bella) International Airport (DAOO) |
Arrival
| Time | N/A |
|---|---|
| Airport | Marseille Provence Airport (LFML) |
| Time | Latitude | Longitude | Altitude | Speed | Heading |
|---|---|---|---|---|---|
| 2026-04-26 12:04 | 35.53386 | -0.84654 | 10574 ft | 266 kts | 313° |
| 2026-04-26 12:04 | 35.54941 | -0.85912 | 11229 ft | 273 kts | 341° |
| 2026-04-26 12:04 | 35.56868 | -0.86217 | 11624 ft | 294 kts | 5° |
| 2026-04-26 12:05 | 35.58864 | -0.85367 | 11814 ft | 319 kts | 32° |
| 2026-04-26 12:05 | 35.60614 | -0.83532 | 12017 ft | 342 kts | 44° |
| 2026-04-26 12:05 | 35.62303 | -0.81363 | 12324 ft | 359 kts | 47° |
| 2026-04-26 12:05 | 35.64001 | -0.79078 | 12946 ft | 365 kts | 47° |
| 2026-04-26 12:06 | 35.65721 | -0.76755 | 13727 ft | 368 kts | 47° |
| 2026-04-26 12:06 | 35.67463 | -0.74425 | 14403 ft | 373 kts | 47° |
| 2026-04-26 12:06 | 35.69237 | -0.72077 | 15077 ft | 377 kts | 46° |
| 2026-04-26 12:06 | 35.71041 | -0.69710 | 15757 ft | 381 kts | 46° |
| 2026-04-26 12:07 | 35.72836 | -0.67369 | 16507 ft | 383 kts | 46° |
| 2026-04-26 12:07 | 35.74679 | -0.64973 | 17156 ft | 388 kts | 46° |
| 2026-04-26 12:07 | 35.76547 | -0.62547 | 17849 ft | 392 kts | 46° |
| 2026-04-26 12:07 | 35.78426 | -0.60107 | 18543 ft | 394 kts | 45° |
| 2026-04-26 12:08 | 35.80323 | -0.57644 | 19146 ft | 397 kts | 45° |
| 2026-04-26 12:08 | 35.82231 | -0.55165 | 19730 ft | 401 kts | 45° |
| 2026-04-26 12:08 | 35.84156 | -0.52661 | 20290 ft | 404 kts | 45° |
| 2026-04-26 12:08 | 35.86098 | -0.50134 | 20863 ft | 408 kts | 45° |
| 2026-04-26 12:09 | 35.88056 | -0.47583 | 21426 ft | 411 kts | 45° |
| 2026-04-26 12:09 | 35.90027 | -0.45015 | 21972 ft | 415 kts | 45° |
| 2026-04-26 12:09 | 35.92018 | -0.42417 | 22504 ft | 418 kts | 45° |
| 2026-04-26 12:09 | 35.94025 | -0.39796 | 23037 ft | 422 kts | 45° |
| 2026-04-26 12:10 | 35.96033 | -0.37173 | 23554 ft | 425 kts | 45° |
| 2026-04-26 12:10 | 35.98069 | -0.34509 | 24001 ft | 428 kts | 45° |
| 2026-04-26 12:10 | 36.00146 | -0.31853 | 24197 ft | 430 kts | 42° |